createdAt,value
2023-03-04T00:03:54.368Z,4.53
2023-03-04T00:08:56.221Z,4.57
2023-03-04T00:13:59.330Z,4.59
2023-03-04T00:19:01.037Z,4.59
2023-03-04T00:24:02.818Z,4.66
2023-03-04T00:29:05.840Z,4.64
2023-03-04T00:34:07.520Z,4.69
2023-03-04T00:39:09.243Z,4.72
2023-03-04T00:44:12.294Z,4.75
2023-03-04T00:49:13.986Z,4.79
2023-03-04T00:54:15.656Z,4.83
2023-03-04T00:59:18.794Z,4.87
2023-03-04T01:04:20.541Z,4.89
2023-03-04T01:09:22.218Z,4.91
2023-03-04T01:14:25.299Z,4.92
2023-03-04T01:19:27.062Z,4.95
2023-03-04T01:24:30.015Z,4.99
2023-03-04T01:29:33.541Z,4.99
2023-03-04T01:34:36.165Z,5.08
2023-03-04T01:39:39.407Z,5.11
2023-03-04T01:44:42.485Z,5.17
2023-03-04T01:49:44.306Z,5.20
2023-03-04T01:54:45.971Z,5.25
2023-03-04T02:00:17.366Z,5.22
2023-03-04T02:05:20.614Z,5.26
2023-03-04T02:10:22.370Z,5.22
2023-03-04T02:15:26.200Z,5.23
2023-03-04T02:20:34.351Z,5.26
2023-03-04T02:25:38.503Z,5.28
2023-03-04T02:30:41.880Z,5.23
2023-03-04T02:35:43.772Z,5.27
2023-03-04T02:40:47.080Z,5.27
2023-03-04T02:45:51.417Z,5.29
2023-03-04T02:50:53.709Z,5.32
2023-03-04T02:55:55.518Z,5.33
2023-03-04T03:01:00.614Z,5.27
2023-03-04T03:06:03.917Z,5.28
2023-03-04T03:11:06.038Z,5.30
2023-03-04T03:16:10.595Z,5.32
2023-03-04T03:21:12.408Z,5.31
2023-03-04T03:26:14.373Z,5.33
2023-03-04T03:31:17.537Z,5.39
2023-03-04T03:36:21.756Z,5.46
2023-03-04T03:41:23.504Z,5.48
2023-03-04T03:46:27.297Z,5.42
2023-03-04T03:51:28.948Z,5.39
2023-03-04T03:56:30.610Z,5.36
2023-03-04T04:01:33.834Z,5.35
2023-03-04T04:06:35.547Z,5.38
2023-03-04T04:11:37.222Z,5.37
2023-03-04T04:16:40.489Z,5.36
2023-03-04T04:21:42.183Z,5.32
2023-03-04T04:26:43.895Z,5.32
2023-03-04T04:31:46.914Z,5.31
2023-03-04T04:36:48.612Z,5.32
2023-03-04T04:41:50.279Z,5.33
2023-03-04T04:46:53.294Z,5.33
2023-03-04T04:51:54.974Z,5.29
2023-03-04T04:56:56.639Z,5.35
2023-03-04T05:01:59.709Z,5.36
2023-03-04T05:07:01.425Z,5.33
2023-03-04T05:12:03.405Z,5.32
2023-03-04T05:17:06.453Z,5.30
2023-03-04T05:22:09.252Z,5.29
2023-03-04T05:27:11.305Z,5.27
2023-03-04T05:32:14.315Z,5.24
2023-03-04T05:37:16.037Z,5.24
2023-03-04T05:42:17.705Z,5.27
2023-03-04T05:47:20.736Z,5.23
2023-03-04T05:52:22.455Z,5.19
2023-03-04T05:57:24.132Z,5.23
2023-03-04T06:02:27.449Z,5.16
2023-03-04T06:07:29.149Z,5.15
2023-03-04T06:12:30.881Z,5.11
2023-03-04T06:17:33.873Z,5.09
2023-03-04T06:22:35.657Z,5.11
2023-03-04T06:27:37.374Z,5.08
2023-03-04T06:32:40.419Z,5.18
2023-03-04T06:37:42.297Z,5.29
2023-03-04T06:42:44.017Z,5.24
2023-03-04T06:47:47.048Z,5.22
2023-03-04T06:52:49.333Z,5.23
2023-03-04T06:57:51.100Z,5.24
2023-03-04T07:02:55.226Z,5.34
2023-03-04T07:07:56.980Z,5.41
2023-03-04T07:12:58.702Z,5.41
2023-03-04T07:18:01.771Z,5.45
2023-03-04T07:23:03.441Z,5.45
2023-03-04T07:28:05.095Z,5.50
2023-03-04T07:33:08.105Z,5.55
2023-03-04T07:38:09.735Z,5.58
2023-03-04T07:43:11.418Z,5.61
2023-03-04T07:48:14.378Z,5.69
2023-03-04T07:53:16.057Z,5.71
2023-03-04T07:58:19.798Z,5.97
2023-03-04T08:03:22.780Z,6.01
2023-03-04T08:08:24.425Z,5.98
2023-03-04T08:13:26.074Z,5.97
2023-03-04T08:18:29.058Z,5.94
2023-03-04T08:23:30.791Z,5.94
2023-03-04T08:28:32.486Z,5.97
2023-03-04T08:33:35.545Z,5.97
2023-03-04T08:38:37.749Z,5.94
2023-03-04T08:43:39.569Z,6.26
2023-03-04T08:48:42.534Z,6.24
2023-03-04T08:53:44.265Z,6.30
2023-03-04T08:58:45.950Z,6.56
2023-03-04T09:03:49.005Z,7.00
2023-03-04T09:08:50.907Z,7.12
2023-03-04T09:13:53.328Z,6.65
2023-03-04T09:18:56.343Z,6.53
2023-03-04T09:23:57.969Z,6.42
2023-03-04T09:29:00.499Z,6.38
2023-03-04T09:34:03.494Z,6.50
2023-03-04T09:39:05.618Z,6.92
2023-03-04T09:44:12.824Z,6.74
2023-03-04T09:49:16.038Z,6.47
2023-03-04T09:54:23.164Z,6.44
2023-03-04T09:59:25.750Z,6.32
2023-03-04T10:04:32.440Z,6.32
2023-03-04T10:09:42.406Z,6.20
2023-03-04T10:14:45.157Z,6.15
2023-03-04T10:19:53.202Z,6.18
2023-03-04T10:24:56.359Z,6.32
2023-03-04T10:29:58.419Z,6.46
2023-03-04T10:35:01.444Z,6.55
2023-03-04T10:40:03.929Z,6.86
2023-03-04T10:45:11.941Z,7.42
2023-03-04T10:50:21.602Z,8.24
2023-03-04T10:55:24.596Z,8.46
2023-03-04T11:00:28.507Z,10.32
2023-03-04T11:05:32.081Z,13.50
2023-03-04T11:10:39.425Z,12.91
2023-03-04T11:15:49.872Z,10.87
2023-03-04T11:20:52.856Z,9.74
2023-03-04T11:25:56.453Z,8.97
2023-03-04T11:30:59.431Z,9.11
2023-03-04T11:36:09.908Z,8.76
2023-03-04T11:41:13.060Z,8.34
2023-03-04T11:46:45.113Z,8.18
2023-03-04T11:51:49.708Z,8.20
2023-03-04T11:56:51.805Z,8.25
2023-03-04T12:01:59.566Z,8.77
2023-03-04T12:07:09.649Z,8.19
2023-03-04T12:12:23.602Z,8.07
2023-03-04T12:17:35.721Z,8.10
2023-03-04T12:22:43.475Z,8.29
2023-03-04T12:27:49.072Z,8.32
2023-03-04T12:32:53.753Z,8.19
2023-03-04T12:38:06.705Z,8.14
2023-03-04T12:43:16.291Z,8.39
2023-03-04T12:48:25.848Z,7.63
2023-03-04T12:53:30.827Z,7.58
2023-03-04T12:58:33.549Z,8.25
2023-03-04T13:03:40.466Z,9.20
2023-03-04T13:08:51.237Z,8.83
2023-03-04T13:14:01.505Z,8.71
2023-03-04T13:19:03.210Z,8.53
2023-03-04T13:24:38.133Z,8.30
2023-03-04T13:29:41.129Z,7.84
2023-03-04T13:34:50.133Z,7.84
2023-03-04T13:40:14.404Z,7.72
2023-03-04T13:45:34.431Z,7.69
2023-03-04T13:50:41.380Z,7.44
2023-03-04T13:55:44.024Z,6.95
2023-03-04T14:00:51.456Z,6.80
2023-03-04T14:06:14.111Z,6.98
2023-03-04T14:11:17.209Z,7.37
2023-03-04T14:16:21.684Z,7.82
2023-03-04T14:21:23.465Z,7.86
2023-03-04T14:26:25.240Z,7.59
2023-03-04T14:31:30.131Z,7.41
2023-03-04T14:36:32.909Z,7.44
2023-03-04T14:41:35.062Z,7.54
2023-03-04T14:46:40.261Z,7.50
2023-03-04T14:51:45.587Z,7.43
2023-03-04T14:56:47.300Z,7.13
2023-03-04T15:01:50.399Z,6.96
2023-03-04T15:06:52.919Z,6.77
2023-03-04T15:11:57.405Z,6.86
2023-03-04T15:17:00.443Z,6.68
2023-03-04T15:22:05.387Z,6.65
2023-03-04T15:27:08.722Z,6.46
2023-03-04T15:32:12.026Z,6.47
2023-03-04T15:37:14.132Z,6.37
2023-03-04T15:42:15.923Z,6.35
2023-03-04T15:47:19.052Z,6.44
2023-03-04T15:52:21.243Z,6.38
2023-03-04T15:57:23.772Z,6.27
2023-03-04T16:02:30.479Z,6.29
2023-03-04T16:07:32.142Z,6.30
2023-03-04T16:12:33.823Z,6.23
2023-03-04T16:17:43.391Z,5.86
2023-03-04T16:22:45.732Z,5.74
2023-03-04T16:27:47.376Z,5.58
2023-03-04T16:32:50.423Z,5.53
2023-03-04T16:37:52.196Z,5.47
2023-03-04T16:42:53.842Z,5.35
2023-03-04T16:47:56.876Z,5.29
2023-03-04T16:52:58.553Z,5.29
2023-03-04T16:58:00.255Z,5.28
2023-03-04T17:03:04.227Z,5.29
2023-03-04T17:08:06.017Z,5.31
2023-03-04T17:13:08.665Z,5.25
2023-03-04T17:18:11.658Z,5.28
2023-03-04T17:23:13.343Z,5.32
2023-03-04T17:28:15.056Z,5.35
2023-03-04T17:33:18.063Z,5.25
2023-03-04T17:38:19.727Z,5.20
2023-03-04T17:43:21.401Z,5.22
2023-03-04T17:48:24.411Z,5.28
2023-03-04T17:53:26.198Z,5.26
2023-03-04T17:58:28.210Z,5.26
2023-03-04T18:03:31.285Z,5.18
2023-03-04T18:08:32.986Z,5.16
2023-03-04T18:13:34.815Z,5.08
2023-03-04T18:18:37.894Z,4.92
2023-03-04T18:23:39.569Z,4.94
2023-03-04T18:28:41.369Z,4.95
2023-03-04T18:33:44.816Z,4.86
2023-03-04T18:38:46.475Z,4.76
2023-03-04T18:43:48.219Z,4.62
2023-03-04T18:48:52.869Z,4.67
2023-03-04T18:53:54.497Z,4.55
2023-03-04T18:58:56.163Z,4.48
2023-03-04T19:03:59.321Z,4.46
2023-03-04T19:09:01.112Z,4.38
2023-03-04T19:14:02.804Z,4.33
2023-03-04T19:19:05.797Z,4.22
2023-03-04T19:24:07.644Z,4.15
2023-03-04T19:29:09.293Z,4.12
2023-03-04T19:34:12.311Z,4.01
2023-03-04T19:39:15.565Z,3.94
2023-03-04T19:44:17.292Z,3.91
2023-03-04T19:49:20.317Z,3.91
2023-03-04T19:54:21.971Z,3.84
2023-03-04T19:59:23.630Z,3.81
2023-03-04T20:04:26.855Z,3.75
2023-03-04T20:09:28.581Z,3.77
2023-03-04T20:14:30.629Z,3.75
2023-03-04T20:19:34.040Z,3.68
2023-03-04T20:24:35.738Z,3.69
2023-03-04T20:29:37.402Z,3.70
2023-03-04T20:34:40.372Z,3.75
2023-03-04T20:39:42.068Z,3.74
2023-03-04T20:44:43.746Z,3.75
2023-03-04T20:49:46.751Z,3.83
2023-03-04T20:54:48.427Z,3.87
2023-03-04T20:59:50.071Z,3.88
2023-03-04T21:04:55.436Z,3.91
2023-03-04T21:09:57.157Z,3.94
2023-03-04T21:14:58.853Z,3.93
2023-03-04T21:20:01.823Z,3.84
2023-03-04T21:25:04.507Z,3.79
2023-03-04T21:30:07.805Z,3.86
2023-03-04T21:35:11.374Z,3.88
2023-03-04T21:40:13.481Z,3.82
2023-03-04T21:45:15.188Z,3.82
2023-03-04T21:50:18.497Z,3.85
2023-03-04T21:55:20.273Z,3.84
2023-03-04T22:00:22.091Z,3.82
2023-03-04T22:05:25.157Z,3.85
2023-03-04T22:10:26.872Z,3.81
2023-03-04T22:15:28.807Z,3.77
2023-03-04T22:20:33.113Z,3.78
2023-03-04T22:25:35.005Z,3.66
2023-03-04T22:30:37.325Z,3.63
2023-03-04T22:35:40.604Z,3.64
2023-03-04T22:40:42.654Z,3.64
2023-03-04T22:45:44.415Z,3.64
2023-03-04T22:50:47.428Z,3.69
2023-03-04T22:55:49.197Z,3.73
2023-03-04T23:00:50.992Z,3.70
2023-03-04T23:06:02.985Z,3.69
2023-03-04T23:11:08.566Z,3.67
2023-03-04T23:16:11.154Z,3.62
2023-03-04T23:21:15.086Z,3.52
2023-03-04T23:26:18.701Z,3.47
2023-03-04T23:31:20.430Z,3.50
2023-03-04T23:36:24.242Z,3.55
2023-03-04T23:41:30.169Z,3.48
2023-03-04T23:46:32.002Z,3.38
2023-03-04T23:51:35.068Z,3.30
2023-03-04T23:56:37.121Z,3.35
